Camp Point, IL

12:16 AM CST on February 08, 2016 (GMT -0600)
Camp Point | | Change Station
CLOSE
Current Station
Personal Weather Station
Location: Camp Point, IL
Elevation: 710 ft
Nearby Weather Stations

Elev 710 ft 40.04 °N, 91.07 °W | Updated 20 seconds ago

Overcast
Overcast
34.9 °F
Feels Like 30 °F
N
5.4
Wind Variable Wind from SW
Gusts 10.1 mph

Today
High -- | Low -- °F
--% Chance of Precip.
Yesterday
High -- | Low -- °F
Precip. -- in
Pressure 29.82 in
Visibility 10.0 miles
Clouds Few 1400 ft
Overcast 4900 ft
Windchill 30 °F
Dew Point 20 °F
Humidity 53%
Rainfall 0.00 in
Snow Depth Not available.
7:06 AM 5:31 PM
Waning Crescent, 0% visible
METAR KUIN 080554Z AUTO 27010KT 10SM FEW014 OVC049 02/M01 A2981 RMK AO2 SLP098 60000 T00171011 10044 20011 401000011 58012
Pressure 29.82 in
Visibility 10.0 miles
Clouds Few 1400 ft
Overcast 4900 ft
Windchill 30 °F
Dew Point 20 °F
Humidity 53%
Rainfall 0.00 in
Snow Depth Not available.
7:06 AM 5:31 PM
Waning Crescent, 0% visible
METAR KUIN 080554Z AUTO 27010KT 10SM FEW014 OVC049 02/M01 A2981 RMK AO2 SLP098 60000 T00171011 10044 20011 401000011 58012

10-Day Weather Forecast

Almanac

Astronomy

Feb. 08, 2016 Rise Set
Actual Time
Civil Twilight
Nautical Twilight
Astronomical Twilight
Moon
Length of Visible Light
Length of Day
Tomorrow will be .
, % of the Moon is Illuminated

Today's Extremes

State Highs State Lows

Community

WunderPhotos

Upload Photos

1,891,393 photos uploaded!

WunderBlog® & News

Nearby

Air Quality

  Air Quality AQ Index Pollutant
Not available.

Snow Depth

Station Depth Elevation

Earthquake Activity

City Distance Mag. Time & Date
Minimum magnitude displayed is 2.5.

Coastal Water Temperatures

Place Temperature

Stations

Nearby Weather Stations

Station Location Temp. Windchill Dew Point Humidity Wind Precip. Elev Updated Type
                   

Watches & Warnings

There are currently no watches in effect.